createdAt,value
2017-06-02T00:01:01.143Z,58.30
2017-06-02T00:03:43.165Z,58.50
2017-06-02T00:06:10.308Z,58.70
2017-06-02T00:08:37.398Z,58.70
2017-06-02T00:11:04.552Z,58.80
2017-06-02T00:13:31.673Z,58.70
2017-06-02T00:15:58.776Z,58.90
2017-06-02T00:18:40.880Z,58.70
2017-06-02T00:21:07.975Z,59.30
2017-06-02T00:23:35.234Z,59.40
2017-06-02T00:26:02.698Z,59.40
2017-06-02T00:28:31.315Z,59.30
2017-06-02T00:31:00.057Z,59.70
2017-06-02T00:36:28.128Z,59.60
2017-06-02T00:38:55.502Z,59.90
2017-06-02T00:44:25.326Z,60.70
2017-06-02T00:46:53.089Z,60.30
2017-06-02T00:49:35.843Z,60.20
2017-06-02T00:52:13.910Z,60.20
2017-06-02T00:54:41.471Z,60.40
2017-06-02T00:57:09.537Z,60.40
2017-06-02T01:02:38.217Z,60.50
2017-06-02T01:05:06.538Z,60.80
2017-06-02T01:07:35.060Z,61.10
2017-06-02T01:10:17.443Z,61.20
2017-06-02T01:13:12.661Z,61.20
2017-06-02T01:15:40.114Z,61.20
2017-06-02T01:18:08.440Z,61.30
2017-06-02T01:21:00.500Z,61.60
2017-06-02T01:23:28.531Z,58.60
2017-06-02T01:25:56.655Z,59.70
2017-06-02T01:37:25.825Z,60.80
2017-06-02T01:42:35.188Z,62.90
2017-06-02T01:45:02.385Z,62.80
2017-06-02T01:47:30.082Z,62.90
2017-06-02T01:52:58.306Z,63.00
2017-06-02T01:58:26.417Z,63.00
2017-06-02T02:00:53.716Z,64.10
2017-06-02T02:03:20.892Z,63.30
2017-06-02T02:05:48.186Z,63.10
2017-06-02T02:08:16.199Z,62.10
2017-06-02T02:10:43.508Z,63.40
2017-06-02T02:13:11.483Z,63.40
2017-06-02T02:15:38.801Z,61.90
2017-06-02T02:18:06.017Z,62.70
2017-06-02T02:20:55.084Z,63.40
2017-06-02T02:23:22.868Z,63.60
2017-06-02T02:25:50.961Z,63.80
2017-06-02T02:28:18.240Z,63.40
2017-06-02T02:30:59.412Z,63.80
2017-06-02T02:33:41.706Z,64.30
2017-06-02T02:36:08.868Z,62.30
2017-06-02T02:44:39.288Z,64.30
2017-06-02T02:47:06.666Z,64.30
2017-06-02T02:49:34.569Z,64.70
2017-06-02T02:52:01.806Z,64.90
2017-06-02T02:54:29.067Z,64.90
2017-06-02T02:56:56.704Z,64.90
2017-06-02T02:59:24.161Z,65.00
2017-06-02T03:02:14.183Z,64.90
2017-06-02T03:05:12.566Z,64.90
2017-06-02T03:10:40.786Z,65.90
2017-06-02T03:13:14.369Z,65.00
2017-06-02T03:15:41.688Z,65.30
2017-06-02T03:18:10.318Z,65.60
2017-06-02T03:20:38.534Z,65.60
2017-06-02T03:23:05.902Z,63.90
2017-06-02T03:25:33.548Z,66.50
2017-06-02T03:31:02.275Z,66.30
2017-06-02T03:33:29.603Z,66.20
2017-06-02T03:35:58.221Z,66.00
2017-06-02T03:38:25.461Z,66.40
2017-06-02T03:41:00.147Z,66.30
2017-06-02T03:43:56.384Z,66.40
2017-06-02T03:49:25.876Z,66.60
2017-06-02T03:51:54.046Z,65.10
2017-06-02T03:54:21.290Z,65.00
2017-06-02T03:56:49.361Z,65.70
2017-06-02T03:59:16.750Z,66.40
2017-06-02T04:04:45.171Z,66.30
2017-06-02T04:10:07.795Z,67.90
2017-06-02T04:12:35.127Z,67.70
2017-06-02T04:15:02.513Z,62.80
2017-06-02T04:17:30.470Z,68.50
2017-06-02T04:19:58.111Z,67.60
2017-06-02T04:22:25.587Z,69.10
2017-06-02T04:24:53.392Z,68.60
2017-06-02T04:30:21.775Z,60.60
2017-06-02T04:32:49.710Z,69.90
2017-06-02T04:35:17.026Z,69.60
2017-06-02T04:40:44.534Z,68.60
2017-06-02T04:43:13.466Z,64.10
2017-06-02T04:45:41.350Z,69.10
2017-06-02T04:48:08.654Z,68.70
2017-06-02T04:51:02.651Z,68.90
2017-06-02T04:53:30.426Z,66.10
2017-06-02T05:08:12.663Z,64.10
2017-06-02T05:10:40.104Z,66.00
2017-06-02T05:13:07.283Z,66.00
2017-06-02T05:15:34.524Z,65.50
2017-06-02T05:18:01.613Z,65.70
2017-06-02T05:20:28.682Z,66.80
2017-06-02T05:22:56.645Z,64.00
2017-06-02T05:25:38.739Z,68.90
2017-06-02T05:28:05.922Z,64.40
2017-06-02T05:30:32.990Z,63.80
2017-06-02T05:33:13.373Z,64.90
2017-06-02T05:35:40.451Z,69.90
2017-06-02T05:38:14.324Z,69.80
2017-06-02T05:40:42.069Z,65.10
2017-06-02T05:43:09.148Z,62.10
2017-06-02T05:45:36.295Z,65.40
2017-06-02T05:48:14.141Z,63.50
2017-06-02T05:50:41.488Z,61.00
2017-06-02T05:53:15.062Z,60.40
2017-06-02T05:56:13.654Z,62.20
2017-06-02T05:58:40.733Z,61.40
2017-06-02T06:01:07.829Z,62.50
2017-06-02T06:03:34.936Z,60.90
2017-06-02T06:06:12.563Z,63.70
2017-06-02T06:08:39.695Z,58.10
2017-06-02T06:11:06.884Z,60.20
2017-06-02T06:16:35.309Z,58.30
2017-06-02T06:19:12.933Z,62.50
2017-06-02T06:25:12.461Z,63.50
2017-06-02T06:31:00.988Z,55.30
2017-06-02T06:33:28.072Z,52.90
2017-06-02T06:39:12.985Z,59.00
2017-06-02T06:41:40.107Z,55.90
2017-06-02T06:44:13.954Z,60.50
2017-06-02T06:46:41.038Z,57.40
2017-06-02T06:49:14.718Z,53.50
2017-06-02T06:51:41.819Z,62.20
2017-06-02T06:54:08.943Z,59.80
2017-06-02T06:56:36.070Z,60.60
2017-06-02T06:59:03.199Z,54.90
2017-06-02T07:01:30.304Z,59.90
2017-06-02T07:03:57.408Z,56.50
2017-06-02T07:06:24.537Z,54.10
2017-06-02T07:08:51.650Z,54.90
2017-06-02T07:11:18.766Z,56.20
2017-06-02T07:13:45.876Z,57.10
2017-06-02T07:16:12.981Z,58.60
2017-06-02T07:18:40.128Z,59.80
2017-06-02T07:21:07.206Z,53.90
2017-06-02T07:26:35.974Z,59.40
2017-06-02T07:29:03.066Z,53.70
2017-06-02T07:34:15.033Z,56.10
2017-06-02T07:36:42.183Z,54.20
2017-06-02T07:39:09.421Z,51.60
2017-06-02T07:41:36.489Z,53.20
2017-06-02T07:44:03.636Z,52.30
2017-06-02T07:46:30.727Z,52.60
2017-06-02T07:48:57.912Z,50.70
2017-06-02T07:51:25.031Z,48.70
2017-06-02T07:53:52.131Z,49.60
2017-06-02T07:56:19.216Z,50.90
2017-06-02T08:01:47.056Z,47.50
2017-06-02T08:04:14.165Z,48.80
2017-06-02T08:06:41.288Z,47.60
2017-06-02T08:09:15.422Z,46.10
2017-06-02T08:11:42.510Z,46.80
2017-06-02T08:14:10.411Z,47.50
2017-06-02T08:16:37.544Z,47.20
2017-06-02T08:19:04.661Z,48.10
2017-06-02T08:21:31.904Z,44.70
2017-06-02T08:23:59.035Z,47.10
2017-06-02T08:26:26.132Z,46.40
2017-06-02T08:28:53.209Z,43.80
2017-06-02T08:34:13.659Z,42.90
2017-06-02T08:36:40.761Z,42.80
2017-06-02T08:39:07.849Z,45.00
2017-06-02T08:44:40.701Z,39.40
2017-06-02T08:47:08.522Z,38.50
2017-06-02T08:49:35.629Z,38.50
2017-06-02T08:52:02.768Z,39.70
2017-06-02T08:54:29.848Z,42.70
2017-06-02T08:56:56.983Z,42.50
2017-06-02T08:59:24.338Z,40.60
2017-06-02T09:02:12.715Z,41.90
2017-06-02T09:04:39.861Z,40.40
2017-06-02T09:07:06.936Z,40.00
2017-06-02T09:12:35.820Z,39.30
2017-06-02T09:15:03.072Z,41.70
2017-06-02T09:17:30.324Z,40.10
2017-06-02T09:20:13.287Z,39.20
2017-06-02T09:22:40.400Z,47.10
2017-06-02T09:25:07.500Z,38.00
2017-06-02T09:27:34.640Z,38.70
2017-06-02T09:30:15.092Z,39.00
2017-06-02T09:32:42.243Z,41.50
2017-06-02T09:35:13.048Z,41.00
2017-06-02T09:37:40.186Z,42.60
2017-06-02T09:40:08.034Z,44.50
2017-06-02T09:42:35.198Z,38.40
2017-06-02T09:45:02.481Z,39.40
2017-06-02T09:47:29.617Z,42.70
2017-06-02T09:50:12.672Z,39.80
2017-06-02T09:52:39.871Z,39.80
2017-06-02T09:55:07.124Z,39.90
2017-06-02T10:00:50.858Z,37.90
2017-06-02T10:03:17.955Z,42.80
2017-06-02T10:05:45.050Z,38.50
2017-06-02T10:08:12.194Z,42.60
2017-06-02T10:10:39.376Z,39.70
2017-06-02T10:13:06.484Z,40.60
2017-06-02T10:15:33.777Z,41.80
2017-06-02T10:18:14.729Z,38.20
2017-06-02T10:20:42.001Z,35.60
2017-06-02T10:23:09.252Z,34.50
2017-06-02T10:25:36.509Z,37.80
2017-06-02T10:28:03.659Z,39.40
2017-06-02T10:30:53.071Z,41.50
2017-06-02T10:33:20.218Z,43.70
2017-06-02T10:38:48.525Z,40.50
2017-06-02T10:41:19.406Z,40.50
2017-06-02T10:43:46.484Z,43.20
2017-06-02T10:46:13.639Z,37.20
2017-06-02T10:48:42.538Z,40.70
2017-06-02T10:51:09.744Z,42.00
2017-06-02T10:53:38.516Z,41.40
2017-06-02T10:56:13.262Z,35.10
2017-06-02T11:01:41.304Z,40.90
2017-06-02T11:04:10.474Z,35.30
2017-06-02T11:06:37.558Z,38.70
2017-06-02T11:09:04.741Z,36.60
2017-06-02T11:11:31.884Z,33.50
2017-06-02T11:13:58.970Z,38.90
2017-06-02T11:16:26.165Z,34.20
2017-06-02T11:19:13.770Z,32.20
2017-06-02T11:25:13.011Z,33.80
2017-06-02T11:30:41.306Z,33.30
2017-06-02T11:45:11.711Z,33.40
2017-06-02T11:47:38.888Z,33.50
2017-06-02T12:01:59.184Z,30.00
2017-06-02T12:22:42.269Z,29.40
2017-06-02T12:25:15.721Z,32.80
2017-06-02T12:30:43.895Z,28.60
2017-06-02T12:33:14.435Z,30.20
2017-06-02T12:35:41.518Z,29.70
2017-06-02T12:38:08.632Z,29.00
2017-06-02T12:40:35.709Z,29.50
2017-06-02T12:43:13.152Z,29.40
2017-06-02T12:45:40.231Z,30.00
2017-06-02T12:48:07.420Z,27.90
2017-06-02T12:50:34.537Z,28.60
2017-06-02T12:53:01.630Z,28.00
2017-06-02T12:55:28.719Z,27.90
2017-06-02T12:57:55.854Z,28.70
2017-06-02T13:00:22.930Z,28.60
2017-06-02T13:02:50.005Z,29.20
2017-06-02T13:08:23.652Z,31.10
2017-06-02T13:34:30.682Z,31.10
2017-06-02T13:37:06.299Z,28.50
2017-06-02T13:46:06.008Z,29.50
2017-06-02T13:51:34.476Z,29.40
2017-06-02T14:00:27.775Z,27.50
2017-06-02T14:09:07.047Z,26.20
2017-06-02T14:11:34.217Z,25.30
2017-06-02T14:14:07.821Z,25.60
2017-06-02T14:20:06.982Z,27.20
2017-06-02T14:25:35.082Z,23.90
2017-06-02T14:31:06.571Z,25.70
2017-06-02T14:40:07.119Z,24.90
2017-06-02T14:42:34.206Z,24.40
2017-06-02T14:45:07.365Z,28.10
2017-06-02T14:51:06.669Z,26.00
2017-06-02T14:53:34.385Z,28.20
2017-06-02T14:59:08.766Z,26.50
2017-06-02T15:01:35.845Z,27.20
2017-06-02T15:04:09.723Z,24.20
2017-06-02T15:10:06.085Z,25.00
2017-06-02T15:19:07.376Z,26.30
2017-06-02T15:21:34.476Z,25.20
2017-06-02T15:27:06.440Z,26.00
2017-06-02T15:29:33.526Z,26.00
2017-06-02T15:32:08.103Z,25.00
2017-06-02T15:34:35.184Z,25.00
2017-06-02T15:37:15.880Z,25.30
2017-06-02T15:40:07.384Z,23.60
2017-06-02T15:42:34.544Z,26.40
2017-06-02T15:45:08.318Z,24.10
2017-06-02T15:47:35.464Z,24.10
2017-06-02T15:50:02.571Z,24.00
2017-06-02T16:10:33.794Z,23.90
2017-06-02T16:13:14.201Z,25.30
2017-06-02T16:15:41.374Z,24.60
2017-06-02T16:18:08.461Z,24.90
2017-06-02T16:20:35.557Z,25.30
2017-06-02T16:23:09.410Z,25.60
2017-06-02T16:25:36.491Z,25.60
2017-06-02T16:28:03.661Z,25.90
2017-06-02T16:30:45.813Z,25.80
2017-06-02T16:33:12.915Z,24.70
2017-06-02T16:35:40.000Z,24.80
2017-06-02T16:38:07.152Z,27.10
2017-06-02T16:40:54.598Z,24.90
2017-06-02T16:43:21.710Z,24.30
2017-06-02T16:45:48.796Z,23.70
2017-06-02T16:48:30.881Z,24.20
2017-06-02T16:51:06.550Z,24.70
2017-06-02T16:53:33.701Z,26.60
2017-06-02T16:56:00.769Z,25.80
2017-06-02T16:58:27.878Z,25.60
2017-06-02T17:00:55.133Z,26.70
2017-06-02T17:03:22.197Z,26.60
2017-06-02T17:05:49.285Z,26.90
2017-06-02T17:08:16.550Z,26.60
2017-06-02T17:10:54.018Z,27.30
2017-06-02T17:13:21.190Z,27.70
2017-06-02T17:16:05.768Z,26.70
2017-06-02T17:21:34.152Z,25.00
2017-06-02T17:24:07.444Z,24.30
2017-06-02T17:27:06.393Z,26.60
2017-06-02T17:29:33.538Z,27.60
2017-06-02T17:32:07.466Z,25.60
2017-06-02T17:35:05.891Z,28.80
2017-06-02T17:37:33.048Z,27.80
2017-06-02T17:40:06.819Z,29.10
2017-06-02T17:43:05.591Z,29.40
2017-06-02T17:45:32.661Z,29.80
2017-06-02T17:48:06.684Z,30.00
2017-06-02T17:50:53.929Z,29.80
2017-06-02T17:53:21.047Z,29.30
2017-06-02T17:56:08.868Z,27.80
2017-06-02T17:59:07.538Z,30.20
2017-06-02T18:01:34.657Z,27.80
2017-06-02T18:04:07.998Z,29.10
2017-06-02T18:06:43.318Z,29.60
2017-06-02T18:09:10.441Z,27.90
2017-06-02T18:11:37.518Z,30.90
2017-06-02T18:14:06.606Z,28.20
2017-06-02T18:19:34.454Z,30.10
2017-06-02T18:22:07.976Z,31.10
2017-06-02T18:24:35.117Z,32.20
2017-06-02T18:27:02.290Z,31.80
2017-06-02T18:29:30.005Z,32.20
2017-06-02T18:31:57.360Z,32.30
2017-06-02T18:34:24.444Z,32.70
2017-06-02T18:36:51.535Z,32.70
2017-06-02T18:39:18.679Z,33.10
2017-06-02T18:41:45.756Z,32.70
2017-06-02T18:44:12.832Z,33.80
2017-06-02T18:46:39.944Z,34.30
2017-06-02T18:49:07.028Z,34.30
2017-06-02T18:54:35.448Z,34.80
2017-06-02T18:57:09.429Z,35.00
2017-06-02T19:00:06.073Z,35.10
2017-06-02T19:02:33.212Z,35.90
2017-06-02T19:05:00.289Z,35.80
2017-06-02T19:07:27.565Z,36.00
2017-06-02T19:09:54.647Z,36.30
2017-06-02T19:12:21.738Z,36.50
2017-06-02T19:14:48.864Z,36.90
2017-06-02T19:17:15.933Z,36.70
2017-06-02T19:20:14.620Z,37.00
2017-06-02T19:22:41.690Z,37.70
2017-06-02T19:25:08.771Z,38.20
2017-06-02T19:27:35.963Z,37.90
2017-06-02T19:30:03.113Z,38.00
2017-06-02T19:32:30.250Z,38.80
2017-06-02T19:34:57.394Z,39.00
2017-06-02T19:37:24.483Z,38.80
2017-06-02T19:39:51.564Z,38.10
2017-06-02T19:42:18.681Z,37.20
2017-06-02T19:44:45.784Z,36.30
2017-06-02T19:47:12.880Z,36.20
2017-06-02T19:49:40.067Z,36.00
2017-06-02T19:52:13.752Z,37.70
2017-06-02T19:54:41.461Z,37.90
2017-06-02T19:57:09.276Z,38.00
2017-06-02T19:59:36.394Z,38.40
2017-06-02T20:02:03.482Z,38.80
2017-06-02T20:07:31.426Z,38.70
2017-06-02T20:09:58.521Z,39.20
2017-06-02T20:12:25.717Z,38.50
2017-06-02T20:14:52.812Z,38.20
2017-06-02T20:17:19.942Z,37.90
2017-06-02T20:20:14.730Z,39.50
2017-06-02T20:22:41.862Z,39.20
2017-06-02T20:25:08.941Z,40.10
2017-06-02T20:27:36.135Z,39.50
2017-06-02T20:30:03.230Z,38.90
2017-06-02T20:32:30.578Z,38.60
2017-06-02T20:35:13.811Z,38.20
2017-06-02T20:37:40.904Z,39.30
2017-06-02T20:40:08.006Z,40.30
2017-06-02T20:42:35.136Z,40.70
2017-06-02T20:45:02.236Z,41.30
2017-06-02T20:47:29.320Z,41.20
2017-06-02T20:50:14.158Z,41.60
2017-06-02T20:55:42.183Z,41.30
2017-06-02T20:58:09.285Z,41.00
2017-06-02T21:00:36.382Z,41.10
2017-06-02T21:03:03.758Z,41.60
2017-06-02T21:05:30.838Z,41.80
2017-06-02T21:07:57.919Z,42.10
2017-06-02T21:10:25.040Z,42.90
2017-06-02T21:12:52.150Z,42.70
2017-06-02T21:15:19.238Z,40.50
2017-06-02T21:17:46.361Z,41.90
2017-06-02T21:20:13.445Z,44.10
2017-06-02T21:22:40.526Z,41.80
2017-06-02T21:25:07.674Z,44.50
2017-06-02T21:30:39.182Z,45.90
2017-06-02T21:33:06.512Z,46.20
2017-06-02T21:35:33.595Z,45.40
2017-06-02T21:38:00.747Z,45.90
2017-06-02T21:40:27.836Z,46.00
2017-06-02T21:42:54.926Z,45.60
2017-06-02T21:45:22.038Z,45.30
2017-06-02T21:47:49.148Z,44.50
2017-06-02T21:50:16.236Z,44.80
2017-06-02T21:53:14.978Z,45.20
2017-06-02T21:55:42.057Z,44.90
2017-06-02T21:58:16.034Z,44.10
2017-06-02T22:00:43.128Z,45.40
2017-06-02T22:05:51.364Z,45.70
2017-06-02T22:10:51.310Z,47.00
2017-06-02T22:13:18.407Z,47.50
2017-06-02T22:15:45.495Z,46.50
2017-06-02T22:18:12.625Z,47.70
2017-06-02T22:20:54.638Z,46.60
2017-06-02T22:26:23.413Z,46.90
2017-06-02T22:28:50.508Z,47.50
2017-06-02T22:31:17.612Z,47.90
2017-06-02T22:33:45.011Z,48.40
2017-06-02T22:36:12.111Z,49.10
2017-06-02T22:38:39.198Z,49.40
2017-06-02T22:46:40.858Z,49.80
2017-06-02T22:49:07.938Z,49.90
2017-06-02T22:51:35.031Z,50.30
2017-06-02T22:54:15.375Z,50.20
2017-06-02T22:57:13.912Z,50.10
2017-06-02T22:59:41.045Z,50.40
2017-06-02T23:02:15.556Z,50.80
2017-06-02T23:05:14.553Z,51.00
2017-06-02T23:07:41.659Z,51.20
2017-06-02T23:10:15.669Z,51.00
2017-06-02T23:12:42.759Z,50.90
2017-06-02T23:15:16.806Z,50.80
2017-06-02T23:17:43.892Z,51.00
2017-06-02T23:20:25.967Z,51.60
2017-06-02T23:23:13.903Z,51.70
2017-06-02T23:25:41.033Z,52.20
2017-06-02T23:28:15.046Z,53.20
2017-06-02T23:30:42.180Z,51.90
2017-06-02T23:33:15.646Z,52.20
2017-06-02T23:36:14.338Z,53.00
2017-06-02T23:38:56.537Z,52.50
2017-06-02T23:41:23.835Z,53.50
2017-06-02T23:44:15.038Z,53.70
2017-06-02T23:46:42.204Z,53.40
2017-06-02T23:49:09.265Z,53.70
2017-06-02T23:51:36.338Z,53.90
2017-06-02T23:54:03.459Z,54.00
2017-06-02T23:56:30.548Z,53.70
2017-06-02T23:58:57.658Z,53.70
